Aérodrome :
LOGIN :

S'inscrire | Disclaimer

   EN    FR    IT 

 










Légende :    VFR   VFR Marginal   IFR   IFR Intensif   IFR Très Intensif
Visi : 
Plafond : 
>= 8 km
>= 3000ft
5 à 8 km
1000 à 3000 ft
1500m à 5 km
500 à 1000 ft
800 à 1500m
200 à 500 ft
< 800m
< 200 ft
Symboles :   Orages  Brouillard  Fortes neiges  Fortes précipitations  Vent > 20 kt
SIGMETs :   Divers  Orages  Givrage  Turbulence  Onde Orograph.  Cendres Volcan.






- Altitude de l'aérodrome : 299 ft
- Code IATA : EDM


LFRI - La Roche Sur Yon - Les Ajoncs

DERNIER METAR :
  • 112300Z AUTO 25005KT 220V280 9999 FEW048 05/03 Q1013

METARs EXPIRÉS :
  • 112230Z AUTO 26005KT 9999 FEW039 SCT064 04/03 Q1013
  • 112200Z AUTO 30015KT 270V330 6000 -RA FEW012/// BKN027/// BKN047/// ///TCU 05/04 Q1013
  • 112130Z AUTO 28009KT 9999 FEW049/// BKN064/// BKN086/// ///TCU 06/03 Q1012
  • 112100Z AUTO 28012KT 9999 FEW027/// SCT043/// ///TCU 06/03 Q1012 TEMPO 30015G35KT 4000 SHRA SCT020CB
  • 112030Z AUTO 25004G18KT 210V300 9999 FEW004/// BKN039/// BKN050/// ///TCU 04/04 Q1013 TEMPO 30015G35KT 4000 SHRA SCT020CB

TAF TAF LFRI
Valide du 11 à 18h jusqu'au 12 à 18h UTC


111700Z 1118/1218 28012KT 9999 SCT020TCU SCT050
TEMPO 1118/1123 30015G35KT 4000 SHRA SCT020CB
FM112300 VRB03KT CAVOK
BECMG 1205/1208 18010KT
TEMPO 1203/1210 4000 SHRA SCT010 BKN020TCU
BECMG 1210/1212 21015G30KT 4500 RA BKN009 SCT030CB BKN040
PROB40
TEMPO 1212/1215 21020G40KT
FM121600 29020G35KT 9999 SCT020TCU
TEMPO 1216/1218 4000 SHRA BKN020TCU



MET'MAP, la Météo Aéronautique d'un coup d'oeil ! - Copyright ORBIFLY Décembre 2007 - Disclaimer

ORBIFLY MET'MAP TEAM :

Programmation & Développement : Alexandra Zaïnal
Sur une idée originale de : Baudouin d'Aumeries
Assistance à la programmation : Marc-Olivier Méhu
Soutien technique & logistique : Manuel Goepfert

Contact : metmap@orbifly.com




SOURCES & CREDITS :

   NOAA